Time;durP1;ratioP1;P1;durP2;ratioP2;P2;SDS_P1;SDS_P2;PMS_P1;PMS_P2;Temp;Humidity;BMP_temperature;BMP_pressure;BME280_temperature;BME280_humidity;BME280_pressure;Samples;Min_cycle;Max_cycle;Signal;HPM_P1;HPM_P2
2024/03/03 00:01:06;;;;;;;22.20;8.00;;;;;;;11.89;48.18;101509.20;107251;1263;23108;-55
2024/03/03 00:03:33;;;;;;;12.40;7.70;;;;;;;11.89;48.18;101506.23;107006;1260;22546;-54
2024/03/03 00:06:06;;;;;;;18.70;8.30;;;;;;;11.89;48.05;101502.59;107177;1264;25375;-54
2024/03/03 00:08:33;;;;;;;16.20;8.70;;;;;;;11.87;47.92;101504.02;107064;1256;22524;-54
2024/03/03 00:11:00;;;;;;;14.90;8.60;;;;;;;11.87;47.89;101503.15;106979;1260;25366;-54
2024/03/03 00:13:29;;;;;;;13.30;8.00;;;;;;;11.84;47.87;101500.93;106365;1254;1003057;-54
2024/03/03 00:15:56;;;;;;;13.40;8.30;;;;;;;11.83;47.88;101503.39;107279;1263;25398;-54
2024/03/03 00:18:23;;;;;;;14.70;8.10;;;;;;;11.82;47.87;101504.09;107120;1253;25354;-54
2024/03/03 00:20:51;;;;;;;16.00;8.50;;;;;;;11.82;47.96;101503.21;107098;1264;25494;-54
2024/03/03 00:23:18;;;;;;;15.50;8.70;;;;;;;11.84;48.01;101498.48;106943;1266;25462;-54
2024/03/03 00:25:45;;;;;;;15.90;8.60;;;;;;;11.86;47.90;101497.24;107296;1263;25325;-54
2024/03/03 00:28:12;;;;;;;12.40;8.30;;;;;;;11.87;47.89;101497.75;107167;1257;25455;-54
2024/03/03 00:30:39;;;;;;;14.30;8.80;;;;;;;11.88;47.92;101496.34;107215;1260;25395;-54
2024/03/03 00:33:06;;;;;;;12.70;8.20;;;;;;;11.88;47.75;101494.95;107094;1256;25352;-54
2024/03/03 00:35:34;;;;;;;18.30;9.30;;;;;;;11.86;47.85;101496.38;107183;1257;25360;-54
2024/03/03 00:38:01;;;;;;;15.70;8.80;;;;;;;11.85;48.03;101495.52;107156;1272;23863;-54
2024/03/03 00:40:28;;;;;;;19.70;9.50;;;;;;;11.85;47.90;101496.05;107181;1263;25401;-54
2024/03/03 00:42:56;;;;;;;17.00;8.70;;;;;;;11.85;47.75;101496.39;107172;1263;22536;-54
2024/03/03 00:45:23;;;;;;;13.90;8.90;;;;;;;11.83;47.62;101497.48;106290;1266;1003401;-54
2024/03/03 00:47:51;;;;;;;14.30;8.40;;;;;;;11.81;47.82;101497.33;107046;1273;25424;-54
2024/03/03 00:50:18;;;;;;;16.40;10.00;;;;;;;11.81;47.87;101496.29;107206;1263;25278;-54
2024/03/03 00:52:45;;;;;;;16.30;9.20;;;;;;;11.80;47.84;101496.28;107018;1257;25353;-54
2024/03/03 00:55:12;;;;;;;16.10;10.10;;;;;;;11.70;47.84;101492.45;107165;1264;25388;-54
2024/03/03 00:57:39;;;;;;;16.30;9.90;;;;;;;11.65;48.25;101490.92;107251;1257;25338;-54
2024/03/03 01:00:09;;;;;;;20.80;9.10;;;;;;;11.64;48.14;101489.90;107128;1253;24269;-54
2024/03/03 01:02:36;;;;;;;16.10;9.60;;;;;;;11.62;47.92;101489.75;107074;1253;22599;-54
2024/03/03 01:05:04;;;;;;;16.80;10.00;;;;;;;11.57;47.93;101487.21;107245;1269;25337;-56
2024/03/03 01:07:31;;;;;;;17.70;9.80;;;;;;;11.54;48.05;101486.04;107090;1256;24277;-54
2024/03/03 01:10:01;;;;;;;17.30;9.40;;;;;;;11.52;48.17;101482.77;107217;1261;25337;-54
2024/03/03 01:12:30;;;;;;;19.10;9.40;;;;;;;11.51;48.19;101483.30;107243;1254;25362;-54
2024/03/03 01:14:57;;;;;;;15.50;9.20;;;;;;;11.48;48.27;101485.95;107153;1266;25366;-54
2024/03/03 01:17:24;;;;;;;16.90;9.40;;;;;;;11.48;48.29;101484.92;107087;1257;25346;-54
2024/03/03 01:19:51;;;;;;;17.90;9.60;;;;;;;11.48;48.38;101487.52;107239;1260;25493;-54
2024/03/03 01:22:18;;;;;;;17.40;9.90;;;;;;;11.48;48.28;101487.52;107030;1270;25353;-54
2024/03/03 01:24:45;;;;;;;22.90;9.30;;;;;;;11.45;48.15;101488.94;107179;1257;25325;-54
2024/03/03 01:27:12;;;;;;;20.60;11.50;;;;;;;11.39;47.98;101487.63;107225;1264;25408;-54
2024/03/03 01:29:39;;;;;;;17.60;10.90;;;;;;;11.36;47.75;101490.09;106508;1266;1003450;-54
2024/03/03 01:32:08;;;;;;;26.20;10.90;;;;;;;11.38;47.78;101489.20;107150;1251;25328;-54
2024/03/03 01:34:35;;;;;;;16.50;11.00;;;;;;;11.30;47.86;101488.80;107125;1253;25394;-54
2024/03/03 01:37:03;;;;;;;15.60;10.60;;;;;;;11.26;47.83;101488.33;106457;1260;1003531;-54
2024/03/03 01:39:30;;;;;;;17.90;10.60;;;;;;;11.23;47.93;101485.41;106420;1251;1003273;-54
2024/03/03 01:41:57;;;;;;;18.30;10.60;;;;;;;11.20;47.96;101486.83;107117;1255;25366;-54
2024/03/03 01:44:24;;;;;;;19.50;11.40;;;;;;;11.19;48.06;101487.36;107147;1266;25353;-54
2024/03/03 01:46:51;;;;;;;19.70;11.60;;;;;;;11.19;47.98;101486.86;107115;1254;25496;-54
2024/03/03 01:49:18;;;;;;;18.80;11.30;;;;;;;11.18;48.00;101486.52;106910;1260;25353;-54
2024/03/03 01:51:46;;;;;;;19.50;12.50;;;;;;;11.17;47.97;101487.92;107203;1267;25494;-54
2024/03/03 01:54:13;;;;;;;25.10;12.50;;;;;;;11.16;47.86;101486.02;107065;1268;25335;-54
2024/03/03 01:56:43;;;;;;;20.90;13.10;;;;;;;11.13;47.81;101484.84;107203;1259;25328;-54
2024/03/03 01:59:10;;;;;;;18.90;13.30;;;;;;;11.09;47.72;101480.90;106836;1267;24387;-54
2024/03/03 02:01:38;;;;;;;25.90;14.20;;;;;;;11.06;47.66;101477.47;107185;1257;25337;-54
2024/03/03 02:04:07;;;;;;;24.90;15.40;;;;;;;11.03;47.82;101474.38;107078;1251;25436;-54
2024/03/03 02:06:34;;;;;;;23.50;16.00;;;;;;;11.03;47.80;101475.41;106421;1263;1003271;-54
2024/03/03 02:09:01;;;;;;;25.50;16.80;;;;;;;11.02;47.69;101476.66;106826;1265;25366;-54
2024/03/03 02:11:29;;;;;;;26.70;17.50;;;;;;;11.00;47.58;101473.20;107205;1264;25421;-54
2024/03/03 02:13:56;;;;;;;29.00;19.00;;;;;;;10.98;47.61;101480.35;107096;1264;22532;-54
2024/03/03 02:16:23;;;;;;;28.50;20.00;;;;;;;10.97;47.75;101474.81;107125;1254;24038;-54
2024/03/03 02:18:50;;;;;;;34.10;20.30;;;;;;;10.94;47.59;101479.52;107153;1263;25394;-54
2024/03/03 02:21:24;;;;;;;25.30;19.20;;;;;;;10.90;47.80;101479.05;107220;1257;25514;-54
2024/03/03 02:23:51;;;;;;;30.20;20.20;;;;;;;10.88;47.91;101478.55;107195;1251;25252;-54
2024/03/03 02:26:19;;;;;;;26.80;18.90;;;;;;;10.88;47.79;101479.24;107157;1266;22528;-54
2024/03/03 02:28:46;;;;;;;32.20;20.20;;;;;;;10.84;47.70;101478.42;107174;1261;24397;-54
2024/03/03 02:31:13;;;;;;;25.90;18.70;;;;;;;10.81;47.73;101484.00;107114;1254;25338;-54
2024/03/03 02:33:40;;;;;;;34.90;19.20;;;;;;;10.77;47.85;101480.41;107082;1260;25347;-54
2024/03/03 02:36:08;;;;;;;29.70;19.80;;;;;;;10.79;47.78;101482.83;107181;1267;25424;-54
2024/03/03 02:38:36;;;;;;;28.10;19.70;;;;;;;10.82;47.74;101484.17;107097;1267;25242;-54
2024/03/03 02:41:04;;;;;;;33.50;21.00;;;;;;;10.80;47.87;101483.16;107132;1254;25325;-54
2024/03/03 02:43:31;;;;;;;27.10;18.80;;;;;;;10.79;48.09;101481.96;107157;1254;22531;-54
2024/03/03 02:45:58;;;;;;;32.40;20.70;;;;;;;10.80;48.12;101484.90;107094;1264;25338;-54
2024/03/03 02:48:25;;;;;;;26.60;19.60;;;;;;;10.79;48.03;101484.05;107224;1257;25344;-54
2024/03/03 02:50:52;;;;;;;29.80;20.40;;;;;;;10.78;48.03;101487.88;105997;1270;1002928;-54
2024/03/03 02:53:20;;;;;;;27.80;20.60;;;;;;;10.79;47.97;101483.16;106825;1259;25417;-54
2024/03/03 02:55:47;;;;;;;31.20;20.90;;;;;;;10.81;47.84;101484.01;105922;1270;1003782;-54
2024/03/03 02:58:13;;;;;;;28.30;19.90;;;;;;;10.80;47.87;101483.17;106746;1270;25382;-54
2024/03/03 03:00:41;;;;;;;31.50;20.70;;;;;;;10.76;47.73;101485.10;106724;1259;25372;-54
2024/03/03 03:03:08;;;;;;;28.00;20.90;;;;;;;10.74;47.91;101487.74;106607;1263;25551;-54
2024/03/03 03:05:35;;;;;;;29.30;20.20;;;;;;;10.73;47.90;101491.57;106768;1264;25551;-54
2024/03/03 03:08:02;;;;;;;31.80;20.20;;;;;;;10.71;47.73;101491.92;106490;1276;25364;-54
2024/03/03 03:10:30;;;;;;;31.90;21.50;;;;;;;10.68;47.83;101494.23;106738;1261;25349;-54
2024/03/03 03:12:57;;;;;;;31.00;23.00;;;;;;;10.65;47.97;101494.95;106724;1267;25413;-54
2024/03/03 03:15:25;;;;;;;40.40;22.90;;;;;;;10.62;48.19;101498.27;106711;1261;25375;-54
2024/03/03 03:17:52;;;;;;;34.60;23.00;;;;;;;10.58;48.39;101495.36;106734;1260;25352;-55
2024/03/03 03:20:20;;;;;;;33.30;21.50;;;;;;;10.54;48.47;101496.96;106656;1263;22565;-54
2024/03/03 03:22:47;;;;;;;39.20;21.50;;;;;;;10.52;48.44;101496.64;105962;1264;1003142;-54
2024/03/03 03:25:14;;;;;;;37.70;23.10;;;;;;;10.50;48.28;101497.35;107057;1257;25356;-54
2024/03/03 03:27:41;;;;;;;36.00;21.50;;;;;;;10.46;48.15;101504.33;107073;1254;24354;-54
2024/03/03 03:30:10;;;;;;;35.10;21.60;;;;;;;10.42;48.20;101506.44;107068;1258;25328;-54
2024/03/03 03:32:37;;;;;;;34.30;21.70;;;;;;;10.41;48.33;101503.67;107173;1253;24218;-54
2024/03/03 03:35:04;;;;;;;30.50;21.10;;;;;;;10.39;48.43;101502.83;107167;1253;25347;-54
2024/03/03 03:37:31;;;;;;;33.00;21.70;;;;;;;10.38;48.37;101505.62;107131;1251;22523;-54
2024/03/03 03:39:58;;;;;;;39.60;23.20;;;;;;;10.37;48.43;101509.10;107183;1261;25328;-54
2024/03/03 03:42:25;;;;;;;36.20;21.60;;;;;;;10.34;48.50;101506.35;107127;1264;25400;-54
2024/03/03 03:44:52;;;;;;;32.40;21.80;;;;;;;10.33;48.36;101507.40;107137;1254;25424;-54
2024/03/03 03:47:19;;;;;;;30.30;21.60;;;;;;;10.32;48.51;101511.40;107122;1256;25391;-54
2024/03/03 03:49:46;;;;;;;31.40;21.50;;;;;;;10.33;48.65;101513.29;107009;1254;25517;-54
2024/03/03 03:52:13;;;;;;;34.60;23.10;;;;;;;10.33;48.22;101513.29;107099;1267;25338;-54
2024/03/03 03:54:40;;;;;;;30.10;21.40;;;;;;;10.32;48.27;101516.95;107140;1251;25328;-54
2024/03/03 03:57:07;;;;;;;33.10;21.00;;;;;;;10.27;48.44;101520.29;106894;1267;25424;-54
2024/03/03 03:59:34;;;;;;;28.60;19.90;;;;;;;10.24;48.57;101514.59;106410;1263;1002892;-53
2024/03/03 04:02:03;;;;;;;33.40;22.70;;;;;;;10.23;48.44;101511.82;107048;1264;25632;-54
2024/03/03 04:04:34;;;;;;;34.80;23.10;;;;;;;10.19;47.94;101510.11;107243;1266;25415;-54
2024/03/03 04:07:04;;;;;;;33.40;23.40;;;;;;;10.13;47.70;101506.53;107147;1250;25385;-54
2024/03/03 04:09:31;;;;;;;34.00;23.00;;;;;;;10.07;47.54;101507.06;106775;1260;22696;-54
2024/03/03 04:11:58;;;;;;;31.90;22.30;;;;;;;10.02;47.60;101505.37;107117;1255;25366;-54
2024/03/03 04:14:26;;;;;;;34.90;21.90;;;;;;;9.98;47.69;101504.88;107151;1264;25455;-54
2024/03/03 04:16:53;;;;;;;36.40;23.00;;;;;;;9.93;47.41;101506.12;107171;1257;22524;-54
2024/03/03 04:19:20;;;;;;;32.10;21.50;;;;;;;9.87;47.40;101504.09;107227;1254;25411;-54
2024/03/03 04:21:47;;;;;;;37.40;24.10;;;;;;;9.82;47.74;101508.10;107167;1255;25362;-54
2024/03/03 04:24:14;;;;;;;37.70;22.70;;;;;;;9.79;47.91;101512.11;107137;1263;25421;-54
2024/03/03 04:26:42;;;;;;;34.30;23.80;;;;;;;9.76;47.92;101509.88;106459;1251;1003041;-54
2024/03/03 04:29:09;;;;;;;42.10;24.40;;;;;;;9.74;47.89;101509.89;107119;1254;25414;-54
2024/03/03 04:31:43;;;;;;;34.60;23.40;;;;;;;9.73;48.00;101512.51;106735;1266;25400;-53
2024/03/03 04:34:10;;;;;;;37.90;24.70;;;;;;;9.71;48.04;101519.45;107139;1254;25366;-54
2024/03/03 04:36:37;;;;;;;36.20;23.70;;;;;;;9.69;48.05;101523.28;107237;1250;22539;-54
2024/03/03 04:39:04;;;;;;;37.80;22.80;;;;;;;9.69;48.28;101526.91;106358;1252;1003180;-54
2024/03/03 04:41:31;;;;;;;38.80;24.60;;;;;;;9.68;48.10;101527.77;107136;1254;25363;-54
2024/03/03 04:43:58;;;;;;;36.50;25.20;;;;;;;9.51;48.26;101525.43;107188;1254;25420;-54
2024/03/03 04:46:25;;;;;;;36.20;24.70;;;;;;;9.59;48.13;101528.34;106409;1254;1002937;-54
2024/03/03 04:48:53;;;;;;;30.30;23.00;;;;;;;9.59;48.00;101529.38;107060;1255;25398;-54
2024/03/03 04:51:20;;;;;;;36.90;25.40;;;;;;;9.64;48.08;101527.45;107234;1250;25362;-54
2024/03/03 04:53:47;;;;;;;39.30;26.10;;;;;;;9.61;48.04;101526.77;107034;1250;25362;-54
2024/03/03 04:56:16;;;;;;;35.50;23.90;;;;;;;9.58;48.17;101521.42;107156;1254;25449;-54
2024/03/03 04:58:44;;;;;;;36.40;24.40;;;;;;;9.57;48.29;101521.95;107130;1254;24254;-54
2024/03/03 05:01:10;;;;;;;41.30;26.50;;;;;;;9.56;48.37;101524.89;106410;1254;1003033;-54
2024/03/03 05:03:38;;;;;;;31.30;23.50;;;;;;;9.55;48.43;101527.33;107081;1254;22516;-54
2024/03/03 05:06:05;;;;;;;43.10;25.30;;;;;;;9.57;48.50;101530.27;107191;1257;25366;-54
2024/03/03 05:08:33;;;;;;;44.90;25.20;;;;;;;9.58;48.36;101532.16;107160;1254;25494;-54
2024/03/03 05:11:00;;;;;;;38.30;26.00;;;;;;;9.58;48.19;101533.55;107107;1254;25366;-54
2024/03/03 05:13:28;;;;;;;39.10;26.70;;;;;;;9.55;48.27;101531.48;106397;1254;1003671;-54
2024/03/03 05:15:55;;;;;;;37.50;27.00;;;;;;;9.52;48.35;101533.58;106962;1270;25372;-54
2024/03/03 05:18:22;;;;;;;36.50;26.20;;;;;;;9.50;48.32;101536.88;107162;1254;25493;-54
2024/03/03 05:20:49;;;;;;;41.40;28.90;;;;;;;9.47;48.26;101537.08;107112;1263;25362;-54
2024/03/03 05:23:18;;;;;;;37.50;26.30;;;;;;;9.44;48.28;101541.06;107212;1254;25353;-55
2024/03/03 05:25:46;;;;;;;42.90;28.20;;;;;;;9.42;48.46;101545.05;107149;1267;25421;-54
2024/03/03 05:28:13;;;;;;;42.80;27.90;;;;;;;9.39;48.57;101545.94;106830;1260;25360;-54
2024/03/03 05:30:40;;;;;;;42.20;29.00;;;;;;;9.38;48.53;101546.80;107206;1264;25357;-53
2024/03/03 05:33:08;;;;;;;37.00;26.80;;;;;;;9.36;48.40;101544.23;107116;1254;25398;-55
2024/03/03 05:35:36;;;;;;;39.80;28.70;;;;;;;9.34;48.35;101547.35;106196;1258;1002583;-54
2024/03/03 05:38:03;;;;;;;41.20;27.40;;;;;;;9.32;48.15;101547.35;107149;1254;25488;-54
2024/03/03 05:40:30;;;;;;;40.40;27.70;;;;;;;9.28;48.13;101547.55;106394;1254;1002818;-54
2024/03/03 05:42:57;;;;;;;38.50;26.80;;;;;;;9.24;48.17;101545.48;107182;1254;25439;-54
2024/03/03 05:45:25;;;;;;;44.00;27.60;;;;;;;9.23;48.33;101546.70;107038;1264;25369;-55
2024/03/03 05:47:52;;;;;;;38.30;27.80;;;;;;;9.22;48.46;101549.81;106868;1260;24357;-54
2024/03/03 05:50:19;;;;;;;36.40;26.90;;;;;;;9.23;48.55;101549.65;106020;1267;1003048;-54
2024/03/03 05:52:47;;;;;;;35.60;26.10;;;;;;;9.23;48.31;101555.02;107130;1256;25487;-54
2024/03/03 05:55:14;;;;;;;39.60;28.40;;;;;;;9.23;48.05;101555.02;107148;1253;25366;-54
2024/03/03 05:57:41;;;;;;;37.70;26.90;;;;;;;9.21;48.08;101552.77;106443;1254;1003719;-54
2024/03/03 06:00:09;;;;;;;40.00;27.10;;;;;;;9.19;48.14;101560.73;107136;1254;25487;-54
2024/03/03 06:02:39;;;;;;;37.70;27.20;;;;;;;9.17;47.96;101567.48;107232;1254;24244;-55
2024/03/03 06:05:06;;;;;;;38.90;27.00;;;;;;;9.15;48.06;101572.52;107097;1257;24345;-55
2024/03/03 06:07:33;;;;;;;37.30;28.00;;;;;;;9.15;48.14;101570.61;107166;1250;24298;-54
2024/03/03 06:10:00;;;;;;;36.30;26.80;;;;;;;9.16;48.04;101570.09;106394;1254;1003336;-54
2024/03/03 06:12:28;;;;;;;37.30;26.70;;;;;;;9.17;47.76;101564.71;107104;1254;25338;-54
2024/03/03 06:14:55;;;;;;;35.00;26.50;;;;;;;9.20;47.74;101561.42;107272;1263;23208;-54
2024/03/03 06:17:21;;;;;;;40.10;26.90;;;;;;;9.27;48.03;101555.17;107156;1251;22550;-54
2024/03/03 06:19:48;;;;;;;39.00;27.80;;;;;;;9.36;48.13;101553.40;107216;1255;25382;-55
2024/03/03 06:22:15;;;;;;;42.20;27.50;;;;;;;9.42;48.02;101556.83;107252;1251;25411;-54
2024/03/03 06:24:43;;;;;;;38.80;27.70;;;;;;;9.50;47.89;101557.83;107353;1254;25353;-55
2024/03/03 06:27:10;;;;;;;40.00;28.00;;;;;;;9.57;47.52;101565.26;107095;1250;25362;-54
2024/03/03 06:29:37;;;;;;;39.50;27.40;;;;;;;9.54;47.17;101567.34;107127;1252;25353;-55
2024/03/03 06:32:05;;;;;;;40.50;27.70;;;;;;;9.44;47.26;101576.05;107195;1254;24216;-55
2024/03/03 06:34:32;;;;;;;37.90;27.30;;;;;;;9.35;47.57;101584.92;106955;1267;22534;-55
2024/03/03 06:37:01;;;;;;;36.00;26.20;;;;;;;9.26;47.70;101584.09;106957;1254;24224;-55
2024/03/03 06:39:28;;;;;;;36.70;27.10;;;;;;;9.19;47.82;101585.83;106884;1250;25439;-55
2024/03/03 06:41:55;;;;;;;35.90;25.70;;;;;;;9.14;47.96;101589.13;106796;1251;24196;-55
2024/03/03 06:44:22;;;;;;;36.70;27.70;;;;;;;9.13;47.93;101590.69;106351;1253;1003352;-55
2024/03/03 06:46:49;;;;;;;35.00;25.90;;;;;;;9.13;47.87;101590.69;107037;1250;25468;-55
2024/03/03 06:49:16;;;;;;;34.70;26.80;;;;;;;9.16;47.94;101583.07;107362;1254;25458;-54
2024/03/03 06:51:43;;;;;;;39.90;26.90;;;;;;;9.16;47.85;101589.13;106212;1259;1003676;-55
2024/03/03 06:54:11;;;;;;;37.30;28.30;;;;;;;9.15;47.86;101599.34;107143;1254;22621;-54
2024/03/03 06:56:38;;;;;;;46.70;28.80;;;;;;;9.19;47.98;101601.58;106908;1256;25372;-55
2024/03/03 06:59:05;;;;;;;39.50;27.70;;;;;;;9.27;47.95;101608.15;106830;1260;25362;-54
2024/03/03 07:01:32;;;;;;;38.40;26.10;;;;;;;9.35;47.67;101614.53;106345;1266;1002651;-54
2024/03/03 07:06:45;;;;;;;38.50;26.10;;;;;;;9.42;47.32;101618.84;107056;1257;25350;-55
2024/03/03 07:09:12;;;;;;;33.10;24.60;;;;;;;9.46;47.20;101617.08;106823;1259;25406;-54
2024/03/03 07:11:39;;;;;;;36.30;26.30;;;;;;;9.55;47.20;101614.97;107196;1254;25415;-55
2024/03/03 07:14:06;;;;;;;39.80;27.90;;;;;;;9.60;46.88;101613.73;106399;1267;1003395;-54
2024/03/03 07:16:33;;;;;;;36.40;27.10;;;;;;;9.60;46.77;101614.95;106875;1273;24210;-55
2024/03/03 07:19:00;;;;;;;32.60;23.50;;;;;;;9.64;46.88;101612.52;106876;1257;25343;-54
2024/03/03 07:21:28;;;;;;;38.40;24.80;;;;;;;9.74;46.89;101607.27;107214;1257;25461;-54
2024/03/03 07:23:54;;;;;;;33.10;24.20;;;;;;;9.84;46.79;101612.06;107189;1254;25423;-54
2024/03/03 07:26:22;;;;;;;37.30;25.60;;;;;;;9.89;46.53;101607.55;107165;1251;25338;-54
2024/03/03 07:28:51;;;;;;;32.60;23.50;;;;;;;9.88;46.43;101600.27;107228;1254;22531;-55
2024/03/03 07:31:18;;;;;;;33.20;24.20;;;;;;;9.89;46.34;101598.36;107125;1251;25359;-54
2024/03/03 07:33:45;;;;;;;32.90;23.00;;;;;;;9.88;46.27;101602.52;107139;1253;26188;-54
2024/03/03 07:36:12;;;;;;;32.00;23.20;;;;;;;9.86;46.35;101603.91;107213;1257;25362;-55
2024/03/03 07:38:39;;;;;;;32.50;22.60;;;;;;;9.91;46.38;101601.98;107202;1253;25497;-54
2024/03/03 07:41:07;;;;;;;32.40;23.40;;;;;;;9.95;46.29;101604.20;107220;1254;25356;-55
2024/03/03 07:43:34;;;;;;;35.80;24.40;;;;;;;9.96;46.20;101605.06;106391;1251;1002889;-55
2024/03/03 07:46:01;;;;;;;32.40;23.30;;;;;;;9.96;46.32;101601.27;107153;1257;25415;-55
2024/03/03 07:48:28;;;;;;;29.30;23.50;;;;;;;9.97;46.31;101597.44;107323;1254;25365;-54
2024/03/03 07:50:55;;;;;;;30.20;21.30;;;;;;;9.97;46.31;101601.27;106489;1254;1003027;-56
2024/03/03 07:53:23;;;;;;;47.70;29.10;;;;;;;9.96;46.30;101603.50;107123;1251;25439;-55
2024/03/03 07:55:50;;;;;;;31.20;23.40;;;;;;;9.97;46.56;101604.89;106391;1256;1003653;-55
2024/03/03 07:58:17;;;;;;;30.10;23.10;;;;;;;9.98;46.60;101603.33;106903;1253;24382;-55
2024/03/03 08:00:44;;;;;;;47.30;34.20;;;;;;;10.00;46.70;101603.83;106389;1256;1002872;-55
2024/03/03 08:03:12;;;;;;;36.50;25.90;;;;;;;10.05;46.88;101605.36;107181;1254;24188;-55
2024/03/03 08:05:39;;;;;;;37.70;26.30;;;;;;;10.09;46.72;101604.31;106981;1267;25487;-56
2024/03/03 08:08:06;;;;;;;33.20;25.20;;;;;;;10.12;46.70;101604.48;107112;1250;22573;-55
2024/03/03 08:10:34;;;;;;;28.10;21.80;;;;;;;10.18;46.56;101608.44;107088;1256;25554;-55
2024/03/03 08:13:01;;;;;;;29.30;22.70;;;;;;;10.21;46.45;101617.09;107097;1257;25375;-55
2024/03/03 08:15:28;;;;;;;26.10;21.50;;;;;;;10.25;46.38;101621.58;106449;1250;1003776;-55
2024/03/03 08:17:55;;;;;;;27.20;20.30;;;;;;;10.30;46.26;101622.40;107103;1250;25361;-54
2024/03/03 08:20:28;;;;;;;32.00;22.90;;;;;;;10.35;46.37;101618.90;107177;1254;25513;-54
2024/03/03 08:22:55;;;;;;;30.80;21.80;;;;;;;10.38;46.22;101621.64;106449;1253;1002863;-55
2024/03/03 08:25:24;;;;;;;28.50;21.60;;;;;;;10.45;46.28;101622.46;107132;1252;25347;-54
2024/03/03 08:27:52;;;;;;;31.70;22.40;;;;;;;10.55;46.13;101626.21;107087;1257;25379;-54
2024/03/03 08:30:19;;;;;;;30.30;21.50;;;;;;;10.66;46.09;101622.30;106413;1256;1002922;-55
2024/03/03 08:32:47;;;;;;;27.50;21.40;;;;;;;10.79;45.93;101624.61;107114;1252;25415;-54
2024/03/03 08:35:14;;;;;;;26.30;21.40;;;;;;;10.89;45.70;101625.38;107023;1256;23216;-56
2024/03/03 08:37:44;;;;;;;30.70;22.80;;;;;;;10.95;45.60;101621.34;106144;1257;1003032;-54
2024/03/03 08:40:11;;;;;;;32.50;22.20;;;;;;;11.02;45.50;101624.05;107107;1269;25450;-54
2024/03/03 08:42:39;;;;;;;32.00;21.70;;;;;;;11.09;45.22;101618.25;107200;1254;24204;-55
2024/03/03 08:45:07;;;;;;;30.90;22.30;;;;;;;11.14;45.11;101617.34;106811;1261;25526;-54
2024/03/03 08:47:34;;;;;;;28.70;21.80;;;;;;;11.20;45.01;101615.00;106306;1254;1002796;-55
2024/03/03 08:50:04;;;;;;;28.60;21.90;;;;;;;11.26;44.91;101612.33;107100;1266;22609;-55
2024/03/03 08:52:31;;;;;;;33.20;23.40;;;;;;;11.29;44.69;101610.73;107045;1267;23909;-55
2024/03/03 08:54:58;;;;;;;33.20;22.90;;;;;;;11.35;44.72;101608.23;106946;1267;25376;-55
2024/03/03 08:57:25;;;;;;;31.90;23.10;;;;;;;11.43;44.84;101606.59;107090;1269;25485;-55
2024/03/03 08:59:52;;;;;;;29.90;22.80;;;;;;;11.51;44.71;101604.59;106176;1267;1003312;-55
2024/03/03 09:02:19;;;;;;;33.60;23.70;;;;;;;11.57;44.58;101604.85;107302;1251;25366;-54
2024/03/03 09:04:47;;;;;;;32.40;23.30;;;;;;;11.63;44.50;101601.48;107160;1260;25338;-54
2024/03/03 09:07:14;;;;;;;33.60;23.80;;;;;;;11.69;44.38;101600.20;107368;1266;25497;-54
2024/03/03 09:09:41;;;;;;;34.00;22.50;;;;;;;11.76;44.36;101604.30;107279;1250;25522;-54
2024/03/03 09:12:12;;;;;;;29.60;22.40;;;;;;;11.83;44.37;101602.98;106418;1267;1002916;-55
2024/03/03 09:14:39;;;;;;;31.30;23.00;;;;;;;11.90;44.31;101601.14;107169;1269;25327;-54
2024/03/03 09:17:05;;;;;;;32.80;23.40;;;;;;;11.99;44.30;101604.67;106935;1254;25287;-55
2024/03/03 09:19:33;;;;;;;28.70;22.10;;;;;;;12.08;44.36;101607.69;106404;1257;1003616;-55
2024/03/03 09:22:00;;;;;;;32.70;22.30;;;;;;;12.13;44.33;101606.37;106162;1272;1003027;-55
2024/03/03 09:24:27;;;;;;;29.30;22.00;;;;;;;12.13;44.54;101611.77;107355;1253;25372;-55
2024/03/03 09:26:54;;;;;;;32.40;22.70;;;;;;;12.18;44.71;101613.60;107250;1251;25440;-55
2024/03/03 09:29:21;;;;;;;34.40;22.20;;;;;;;12.23;44.73;101616.14;107322;1257;25369;-54
2024/03/03 09:31:52;;;;;;;39.90;24.20;;;;;;;12.30;44.66;101616.92;107188;1250;22546;-53
2024/03/03 09:34:19;;;;;;;31.80;21.90;;;;;;;12.39;44.86;101616.95;107066;1254;25497;-53
2024/03/03 09:36:46;;;;;;;29.40;21.00;;;;;;;12.48;44.86;101620.28;107150;1266;22529;-53
2024/03/03 09:39:14;;;;;;;29.80;19.40;;;;;;;12.60;44.64;101619.91;107128;1254;25414;-53
2024/03/03 09:41:43;;;;;;;28.40;20.50;;;;;;;12.70;44.36;101618.87;107138;1263;25347;-55
2024/03/03 09:44:11;;;;;;;29.90;19.80;;;;;;;12.77;44.00;101621.73;106964;1269;22604;-54
2024/03/03 09:46:38;;;;;;;31.10;20.30;;;;;;;12.85;43.73;101614.96;106882;1272;25375;-55
2024/03/03 09:49:06;;;;;;;31.60;21.60;;;;;;;12.88;43.73;101613.68;106923;1266;25379;-55
2024/03/03 09:51:33;;;;;;;33.30;22.20;;;;;;;12.89;43.54;101613.50;106890;1254;22839;-55
2024/03/03 09:54:00;;;;;;;32.20;21.80;;;;;;;12.88;43.41;101613.86;107063;1271;22529;-55
2024/03/03 09:56:27;;;;;;;32.70;21.50;;;;;;;12.86;43.38;101613.55;107107;1267;25350;-55
2024/03/03 09:58:54;;;;;;;30.30;22.20;;;;;;;12.86;43.43;101608.66;107101;1255;25424;-55
2024/03/03 10:01:21;;;;;;;37.40;22.40;;;;;;;12.90;43.66;101609.65;107136;1266;25418;-54
2024/03/03 10:03:49;;;;;;;29.60;20.60;;;;;;;12.94;43.75;101609.91;107192;1260;25375;-54
2024/03/03 10:06:18;;;;;;;33.90;22.90;;;;;;;12.97;43.62;101608.64;106932;1271;23332;-55
2024/03/03 10:08:45;;;;;;;35.40;21.70;;;;;;;12.97;43.26;101602.89;106947;1269;25424;-55
2024/03/03 10:11:13;;;;;;;29.40;21.00;;;;;;;12.92;43.42;101602.83;107140;1266;25412;-55
2024/03/03 10:13:44;;;;;;;31.00;22.40;;;;;;;12.90;43.57;101603.90;107134;1266;22523;-55
2024/03/03 10:16:14;;;;;;;36.00;22.50;;;;;;;12.91;43.43;101599.35;107175;1266;22516;-55
2024/03/03 10:18:42;;;;;;;30.80;21.00;;;;;;;12.90;43.45;101598.84;107102;1267;25344;-55
2024/03/03 10:21:12;;;;;;;34.00;21.90;;;;;;;12.89;43.70;101595.73;107154;1266;23270;-56
2024/03/03 10:23:39;;;;;;;29.90;20.90;;;;;;;12.94;43.80;101596.86;106515;1260;1002965;-55
2024/03/03 10:26:08;;;;;;;32.00;19.20;;;;;;;13.02;43.66;101596.38;107088;1266;25313;-55
2024/03/03 10:28:35;;;;;;;25.30;19.20;;;;;;;13.08;43.34;101587.93;107106;1267;25333;-55
2024/03/03 10:31:12;;;;;;;26.70;20.20;;;;;;;13.14;43.32;101589.38;106296;1269;1002643;-55
2024/03/03 10:33:57;;;;;;;27.60;20.00;;;;;;;13.17;43.24;101585.50;107193;1266;25372;-55
2024/03/03 10:36:25;;;;;;;29.20;20.00;;;;;;;13.19;43.16;101578.33;107133;1266;25418;-55
2024/03/03 10:38:55;;;;;;;28.50;18.80;;;;;;;13.20;43.18;101573.77;107214;1269;25424;-55
2024/03/03 10:41:22;;;;;;;26.50;19.90;;;;;;;13.25;43.25;101571.91;107157;1267;25424;-54
2024/03/03 10:43:50;;;;;;;34.30;22.10;;;;;;;13.30;43.27;101566.42;107134;1266;25375;-54
2024/03/03 10:46:18;;;;;;;34.70;21.60;;;;;;;13.29;43.10;101563.81;107136;1266;25310;-55
2024/03/03 10:48:46;;;;;;;28.50;20.60;;;;;;;13.30;43.16;101558.93;107156;1269;23000;-55
2024/03/03 10:51:20;;;;;;;30.90;21.30;;;;;;;13.32;43.10;101557.31;107137;1267;22651;-55
2024/03/03 10:53:51;;;;;;;30.60;21.60;;;;;;;13.35;43.01;101559.87;107166;1269;25385;-55
2024/03/03 10:56:22;;;;;;;27.50;19.20;;;;;;;13.40;42.89;101557.15;107224;1266;22523;-54
2024/03/03 10:58:50;;;;;;;24.00;18.80;;;;;;;13.46;42.73;101555.98;107178;1266;25414;-55
2024/03/03 11:01:17;;;;;;;26.60;18.90;;;;;;;13.46;42.96;101554.58;107223;1266;23959;-55
2024/03/03 11:03:48;;;;;;;24.60;19.20;;;;;;;13.48;42.65;101552.28;107164;1267;25414;-55
2024/03/03 11:06:16;;;;;;;26.30;20.00;;;;;;;13.52;42.84;101550.96;107216;1267;22534;-54